sensor_id;sensor_type;location;lat;lon;timestamp;P1;durP1;ratioP1;P2;durP2;ratioP2
44696;SDS011;57264;47.480;19.354;2024-01-27T00:00:19;14.77;;;8.27;;
44696;SDS011;57264;47.480;19.354;2024-01-27T00:02:45;12.27;;;8.37;;
44696;SDS011;57264;47.480;19.354;2024-01-27T00:05:11;18.15;;;7.53;;
44696;SDS011;57264;47.480;19.354;2024-01-27T00:07:37;14.82;;;7.60;;
44696;SDS011;57264;47.480;19.354;2024-01-27T00:10:03;11.63;;;7.63;;
44696;SDS011;57264;47.480;19.354;2024-01-27T00:12:28;15.63;;;7.70;;
44696;SDS011;57264;47.480;19.354;2024-01-27T00:14:54;12.30;;;7.67;;
44696;SDS011;57264;47.480;19.354;2024-01-27T00:17:19;16.87;;;8.13;;
44696;SDS011;57264;47.480;19.354;2024-01-27T00:19:49;11.77;;;7.63;;
44696;SDS011;57264;47.480;19.354;2024-01-27T00:22:15;15.85;;;7.63;;
44696;SDS011;57264;47.480;19.354;2024-01-27T00:24:42;14.10;;;7.75;;
44696;SDS011;57264;47.480;19.354;2024-01-27T00:27:08;17.35;;;7.93;;
44696;SDS011;57264;47.480;19.354;2024-01-27T00:29:33;12.27;;;6.47;;
44696;SDS011;57264;47.480;19.354;2024-01-27T00:31:59;11.17;;;6.50;;
44696;SDS011;57264;47.480;19.354;2024-01-27T00:34:24;11.40;;;6.60;;
44696;SDS011;57264;47.480;19.354;2024-01-27T00:36:51;12.05;;;6.32;;
44696;SDS011;57264;47.480;19.354;2024-01-27T00:39:19;7.80;;;4.60;;
44696;SDS011;57264;47.480;19.354;2024-01-27T00:41:45;9.77;;;4.40;;
44696;SDS011;57264;47.480;19.354;2024-01-27T00:44:10;8.20;;;4.60;;
44696;SDS011;57264;47.480;19.354;2024-01-27T00:46:36;6.10;;;3.60;;
44696;SDS011;57264;47.480;19.354;2024-01-27T00:49:03;7.95;;;4.22;;
44696;SDS011;57264;47.480;19.354;2024-01-27T00:51:28;5.00;;;3.87;;
44696;SDS011;57264;47.480;19.354;2024-01-27T00:53:54;7.27;;;4.27;;
44696;SDS011;57264;47.480;19.354;2024-01-27T00:56:19;7.00;;;4.30;;
44696;SDS011;57264;47.480;19.354;2024-01-27T00:58:45;6.57;;;3.43;;
44696;SDS011;57264;47.480;19.354;2024-01-27T01:04:28;6.50;;;4.10;;
44696;SDS011;57264;47.480;19.354;2024-01-27T01:06:55;6.78;;;3.45;;
44696;SDS011;57264;47.480;19.354;2024-01-27T01:09:21;4.50;;;2.92;;
44696;SDS011;57264;47.480;19.354;2024-01-27T01:11:46;5.53;;;3.20;;
44696;SDS011;57264;47.480;19.354;2024-01-27T01:14:12;4.43;;;2.43;;
44696;SDS011;57264;47.480;19.354;2024-01-27T01:16:38;3.40;;;2.40;;
44696;SDS011;57264;47.480;19.354;2024-01-27T01:19:04;5.73;;;2.47;;
44696;SDS011;57264;47.480;19.354;2024-01-27T01:21:29;2.20;;;1.80;;
44696;SDS011;57264;47.480;19.354;2024-01-27T01:23:55;4.93;;;2.70;;
44696;SDS011;57264;47.480;19.354;2024-01-27T01:26:20;4.73;;;2.20;;
44696;SDS011;57264;47.480;19.354;2024-01-27T01:28:46;3.77;;;1.90;;
44696;SDS011;57264;47.480;19.354;2024-01-27T01:31:11;4.07;;;2.53;;
44696;SDS011;57264;47.480;19.354;2024-01-27T01:33:37;4.37;;;1.90;;
44696;SDS011;57264;47.480;19.354;2024-01-27T01:36:03;4.70;;;1.90;;
44696;SDS011;57264;47.480;19.354;2024-01-27T01:38:28;4.00;;;1.40;;
44696;SDS011;57264;47.480;19.354;2024-01-27T01:40:54;4.63;;;1.87;;
44696;SDS011;57264;47.480;19.354;2024-01-27T01:43:19;3.53;;;1.50;;
44696;SDS011;57264;47.480;19.354;2024-01-27T01:45:45;1.83;;;1.40;;
44696;SDS011;57264;47.480;19.354;2024-01-27T01:48:11;3.70;;;1.70;;
44696;SDS011;57264;47.480;19.354;2024-01-27T01:50:36;1.77;;;0.93;;
44696;SDS011;57264;47.480;19.354;2024-01-27T01:53:02;2.83;;;1.60;;
44696;SDS011;57264;47.480;19.354;2024-01-27T01:55:29;2.33;;;1.55;;
44696;SDS011;57264;47.480;19.354;2024-01-27T01:57:54;2.43;;;1.40;;
44696;SDS011;57264;47.480;19.354;2024-01-27T02:00:20;1.83;;;1.20;;
44696;SDS011;57264;47.480;19.354;2024-01-27T02:02:45;3.60;;;1.70;;
44696;SDS011;57264;47.480;19.354;2024-01-27T02:05:12;3.23;;;2.20;;
44696;SDS011;57264;47.480;19.354;2024-01-27T02:07:38;1.45;;;1.33;;
44696;SDS011;57264;47.480;19.354;2024-01-27T02:10:04;4.27;;;1.20;;
44696;SDS011;57264;47.480;19.354;2024-01-27T02:12:31;2.25;;;1.02;;
44696;SDS011;57264;47.480;19.354;2024-01-27T02:14:56;1.47;;;0.97;;
44696;SDS011;57264;47.480;19.354;2024-01-27T02:17:22;3.53;;;1.80;;
44696;SDS011;57264;47.480;19.354;2024-01-27T02:19:47;3.53;;;1.20;;
44696;SDS011;57264;47.480;19.354;2024-01-27T02:22:13;2.67;;;1.40;;
44696;SDS011;57264;47.480;19.354;2024-01-27T02:24:38;2.67;;;1.20;;
44696;SDS011;57264;47.480;19.354;2024-01-27T02:27:04;2.37;;;1.07;;
44696;SDS011;57264;47.480;19.354;2024-01-27T02:29:29;1.13;;;0.87;;
44696;SDS011;57264;47.480;19.354;2024-01-27T02:31:55;2.47;;;1.37;;
44696;SDS011;57264;47.480;19.354;2024-01-27T02:34:21;2.00;;;0.90;;
44696;SDS011;57264;47.480;19.354;2024-01-27T02:36:46;2.17;;;0.90;;
44696;SDS011;57264;47.480;19.354;2024-01-27T02:39:12;1.80;;;0.90;;
44696;SDS011;57264;47.480;19.354;2024-01-27T02:41:38;2.10;;;0.90;;
44696;SDS011;57264;47.480;19.354;2024-01-27T02:44:07;2.92;;;0.80;;
44696;SDS011;57264;47.480;19.354;2024-01-27T02:46:32;1.42;;;0.85;;
44696;SDS011;57264;47.480;19.354;2024-01-27T02:48:58;3.63;;;1.53;;
44696;SDS011;57264;47.480;19.354;2024-01-27T02:51:23;1.83;;;0.70;;
44696;SDS011;57264;47.480;19.354;2024-01-27T02:53:49;3.03;;;0.93;;
44696;SDS011;57264;47.480;19.354;2024-01-27T02:56:18;2.87;;;1.50;;
44696;SDS011;57264;47.480;19.354;2024-01-27T02:58:43;2.13;;;0.80;;
44696;SDS011;57264;47.480;19.354;2024-01-27T03:01:09;1.57;;;0.80;;
44696;SDS011;57264;47.480;19.354;2024-01-27T03:03:34;1.80;;;0.70;;
44696;SDS011;57264;47.480;19.354;2024-01-27T03:05:59;1.13;;;0.40;;
44696;SDS011;57264;47.480;19.354;2024-01-27T03:08:26;2.47;;;0.50;;
44696;SDS011;57264;47.480;19.354;2024-01-27T03:10:51;1.27;;;0.60;;
44696;SDS011;57264;47.480;19.354;2024-01-27T03:13:17;0.73;;;0.53;;
44696;SDS011;57264;47.480;19.354;2024-01-27T03:15:44;1.67;;;0.70;;
44696;SDS011;57264;47.480;19.354;2024-01-27T03:18:10;2.87;;;0.53;;
44696;SDS011;57264;47.480;19.354;2024-01-27T03:20:35;1.17;;;0.60;;
44696;SDS011;57264;47.480;19.354;2024-01-27T03:23:01;1.00;;;0.57;;
44696;SDS011;57264;47.480;19.354;2024-01-27T03:25:26;3.33;;;0.90;;
44696;SDS011;57264;47.480;19.354;2024-01-27T03:27:52;0.83;;;0.50;;
44696;SDS011;57264;47.480;19.354;2024-01-27T03:30:17;0.87;;;0.50;;
44696;SDS011;57264;47.480;19.354;2024-01-27T03:32:43;2.73;;;1.10;;
44696;SDS011;57264;47.480;19.354;2024-01-27T03:35:09;0.50;;;0.50;;
44696;SDS011;57264;47.480;19.354;2024-01-27T03:37:34;1.03;;;0.63;;
44696;SDS011;57264;47.480;19.354;2024-01-27T03:40:00;2.60;;;0.80;;
44696;SDS011;57264;47.480;19.354;2024-01-27T03:42:26;0.80;;;0.40;;
44696;SDS011;57264;47.480;19.354;2024-01-27T03:44:52;2.90;;;0.70;;
44696;SDS011;57264;47.480;19.354;2024-01-27T03:47:17;1.10;;;0.73;;
44696;SDS011;57264;47.480;19.354;2024-01-27T03:49:43;1.83;;;0.53;;
44696;SDS011;57264;47.480;19.354;2024-01-27T03:52:09;3.23;;;0.87;;
44696;SDS011;57264;47.480;19.354;2024-01-27T03:54:37;0.98;;;0.43;;
44696;SDS011;57264;47.480;19.354;2024-01-27T03:57:03;3.20;;;0.50;;
44696;SDS011;57264;47.480;19.354;2024-01-27T03:59:29;3.00;;;0.90;;
44696;SDS011;57264;47.480;19.354;2024-01-27T04:01:54;1.43;;;0.70;;
44696;SDS011;57264;47.480;19.354;2024-01-27T04:04:20;2.23;;;0.80;;
44696;SDS011;57264;47.480;19.354;2024-01-27T04:06:46;2.47;;;0.57;;
44696;SDS011;57264;47.480;19.354;2024-01-27T04:09:11;0.93;;;0.73;;
44696;SDS011;57264;47.480;19.354;2024-01-27T04:11:37;1.87;;;0.60;;
44696;SDS011;57264;47.480;19.354;2024-01-27T04:14:04;2.42;;;0.60;;
44696;SDS011;57264;47.480;19.354;2024-01-27T04:16:30;5.57;;;0.80;;
44696;SDS011;57264;47.480;19.354;2024-01-27T04:18:56;0.47;;;0.30;;
44696;SDS011;57264;47.480;19.354;2024-01-27T04:21:22;2.10;;;0.77;;
44696;SDS011;57264;47.480;19.354;2024-01-27T04:23:47;1.90;;;0.60;;
44696;SDS011;57264;47.480;19.354;2024-01-27T04:26:13;1.27;;;0.70;;
44696;SDS011;57264;47.480;19.354;2024-01-27T04:28:38;2.20;;;0.63;;
44696;SDS011;57264;47.480;19.354;2024-01-27T04:31:04;0.87;;;0.67;;
44696;SDS011;57264;47.480;19.354;2024-01-27T04:33:29;2.97;;;0.93;;
44696;SDS011;57264;47.480;19.354;2024-01-27T04:35:55;1.90;;;0.50;;
44696;SDS011;57264;47.480;19.354;2024-01-27T04:38:20;3.00;;;0.77;;
44696;SDS011;57264;47.480;19.354;2024-01-27T04:40:46;0.57;;;0.50;;
44696;SDS011;57264;47.480;19.354;2024-01-27T04:43:15;1.10;;;0.43;;
44696;SDS011;57264;47.480;19.354;2024-01-27T04:45:41;0.95;;;0.55;;
44696;SDS011;57264;47.480;19.354;2024-01-27T04:48:07;1.33;;;0.30;;
44696;SDS011;57264;47.480;19.354;2024-01-27T04:50:33;0.80;;;0.30;;
44696;SDS011;57264;47.480;19.354;2024-01-27T04:52:59;0.83;;;0.60;;
44696;SDS011;57264;47.480;19.354;2024-01-27T04:55:25;1.73;;;0.50;;
44696;SDS011;57264;47.480;19.354;2024-01-27T04:57:50;2.33;;;0.67;;
44696;SDS011;57264;47.480;19.354;2024-01-27T05:00:16;4.83;;;0.80;;
44696;SDS011;57264;47.480;19.354;2024-01-27T05:02:42;2.33;;;0.60;;
44696;SDS011;57264;47.480;19.354;2024-01-27T05:05:08;1.23;;;0.68;;
44696;SDS011;57264;47.480;19.354;2024-01-27T05:07:34;5.13;;;0.93;;
44696;SDS011;57264;47.480;19.354;2024-01-27T05:10:00;6.73;;;0.90;;
44696;SDS011;57264;47.480;19.354;2024-01-27T05:12:26;2.85;;;1.00;;
44696;SDS011;57264;47.480;19.354;2024-01-27T05:14:51;7.10;;;1.20;;
44696;SDS011;57264;47.480;19.354;2024-01-27T05:17:17;2.43;;;0.70;;
44696;SDS011;57264;47.480;19.354;2024-01-27T05:19:42;1.40;;;0.57;;
44696;SDS011;57264;47.480;19.354;2024-01-27T05:22:08;3.20;;;0.67;;
44696;SDS011;57264;47.480;19.354;2024-01-27T05:24:33;1.37;;;0.63;;
44696;SDS011;57264;47.480;19.354;2024-01-27T05:26:59;3.23;;;0.80;;
44696;SDS011;57264;47.480;19.354;2024-01-27T05:29:26;1.97;;;0.50;;
44696;SDS011;57264;47.480;19.354;2024-01-27T05:31:53;3.78;;;0.90;;
44696;SDS011;57264;47.480;19.354;2024-01-27T05:34:19;2.10;;;0.95;;
44696;SDS011;57264;47.480;19.354;2024-01-27T05:36:44;5.47;;;1.07;;
44696;SDS011;57264;47.480;19.354;2024-01-27T05:39:10;2.80;;;0.87;;
44696;SDS011;57264;47.480;19.354;2024-01-27T05:41:35;4.03;;;0.83;;
44696;SDS011;57264;47.480;19.354;2024-01-27T05:44:02;2.35;;;1.13;;
44696;SDS011;57264;47.480;19.354;2024-01-27T05:46:27;3.30;;;0.70;;
44696;SDS011;57264;47.480;19.354;2024-01-27T05:48:53;5.43;;;1.23;;
44696;SDS011;57264;47.480;19.354;2024-01-27T05:51:19;3.20;;;1.13;;
44696;SDS011;57264;47.480;19.354;2024-01-27T05:53:46;3.60;;;0.73;;
44696;SDS011;57264;47.480;19.354;2024-01-27T05:56:12;5.00;;;0.93;;
44696;SDS011;57264;47.480;19.354;2024-01-27T05:58:37;1.17;;;0.60;;
44696;SDS011;57264;47.480;19.354;2024-01-27T06:01:03;3.10;;;0.67;;
44696;SDS011;57264;47.480;19.354;2024-01-27T06:03:29;2.07;;;0.80;;
44696;SDS011;57264;47.480;19.354;2024-01-27T06:05:56;5.38;;;1.13;;
44696;SDS011;57264;47.480;19.354;2024-01-27T06:08:21;4.00;;;0.70;;
44696;SDS011;57264;47.480;19.354;2024-01-27T06:10:47;3.27;;;0.93;;
44696;SDS011;57264;47.480;19.354;2024-01-27T06:13:12;4.30;;;0.80;;
44696;SDS011;57264;47.480;19.354;2024-01-27T06:15:38;3.60;;;1.00;;
44696;SDS011;57264;47.480;19.354;2024-01-27T06:18:04;2.07;;;0.87;;
44696;SDS011;57264;47.480;19.354;2024-01-27T06:20:30;4.23;;;1.20;;
44696;SDS011;57264;47.480;19.354;2024-01-27T06:22:55;3.17;;;0.83;;
44696;SDS011;57264;47.480;19.354;2024-01-27T06:25:21;3.17;;;1.30;;
44696;SDS011;57264;47.480;19.354;2024-01-27T06:27:46;0.73;;;0.67;;
44696;SDS011;57264;47.480;19.354;2024-01-27T06:30:12;6.77;;;1.30;;
44696;SDS011;57264;47.480;19.354;2024-01-27T06:32:39;7.32;;;1.38;;
44696;SDS011;57264;47.480;19.354;2024-01-27T06:35:06;3.55;;;1.23;;
44696;SDS011;57264;47.480;19.354;2024-01-27T06:37:32;4.05;;;1.00;;
44696;SDS011;57264;47.480;19.354;2024-01-27T06:39:58;2.97;;;0.90;;
44696;SDS011;57264;47.480;19.354;2024-01-27T06:42:23;5.53;;;1.00;;
44696;SDS011;57264;47.480;19.354;2024-01-27T06:44:49;3.67;;;0.90;;
44696;SDS011;57264;47.480;19.354;2024-01-27T06:47:15;1.37;;;1.00;;
44696;SDS011;57264;47.480;19.354;2024-01-27T06:49:41;4.43;;;0.80;;
44696;SDS011;57264;47.480;19.354;2024-01-27T06:52:06;4.90;;;0.80;;
44696;SDS011;57264;47.480;19.354;2024-01-27T08:10:12;2.17;;;1.30;;
44696;SDS011;57264;47.480;19.354;2024-01-27T08:12:37;2.60;;;1.23;;
44696;SDS011;57264;47.480;19.354;2024-01-27T08:15:03;4.20;;;1.13;;
44696;SDS011;57264;47.480;19.354;2024-01-27T08:17:29;4.78;;;0.90;;
44696;SDS011;57264;47.480;19.354;2024-01-27T08:19:55;5.27;;;1.83;;
44696;SDS011;57264;47.480;19.354;2024-01-27T08:22:20;6.93;;;2.20;;
44696;SDS011;57264;47.480;19.354;2024-01-27T08:24:46;4.47;;;1.50;;
44696;SDS011;57264;47.480;19.354;2024-01-27T08:27:11;5.97;;;1.20;;
44696;SDS011;57264;47.480;19.354;2024-01-27T08:29:37;4.23;;;1.23;;
44696;SDS011;57264;47.480;19.354;2024-01-27T08:32:03;4.33;;;0.93;;
44696;SDS011;57264;47.480;19.354;2024-01-27T08:34:28;2.53;;;0.80;;
44696;SDS011;57264;47.480;19.354;2024-01-27T08:36:59;2.37;;;0.90;;
44696;SDS011;57264;47.480;19.354;2024-01-27T08:39:26;2.65;;;0.88;;
44696;SDS011;57264;47.480;19.354;2024-01-27T08:41:51;4.63;;;1.17;;
44696;SDS011;57264;47.480;19.354;2024-01-27T08:44:17;6.37;;;1.40;;
44696;SDS011;57264;47.480;19.354;2024-01-27T08:46:42;5.63;;;1.30;;
44696;SDS011;57264;47.480;19.354;2024-01-27T08:49:08;7.77;;;2.27;;
44696;SDS011;57264;47.480;19.354;2024-01-27T08:51:33;5.43;;;2.07;;
44696;SDS011;57264;47.480;19.354;2024-01-27T08:53:59;3.90;;;1.20;;
44696;SDS011;57264;47.480;19.354;2024-01-27T08:56:25;2.63;;;1.47;;
44696;SDS011;57264;47.480;19.354;2024-01-27T08:58:50;3.70;;;1.23;;
44696;SDS011;57264;47.480;19.354;2024-01-27T09:01:17;3.47;;;1.20;;
44696;SDS011;57264;47.480;19.354;2024-01-27T09:03:43;4.43;;;1.03;;
44696;SDS011;57264;47.480;19.354;2024-01-27T09:06:09;2.97;;;1.30;;
44696;SDS011;57264;47.480;19.354;2024-01-27T09:08:34;2.73;;;0.87;;
44696;SDS011;57264;47.480;19.354;2024-01-27T09:11:03;5.13;;;1.20;;
44696;SDS011;57264;47.480;19.354;2024-01-27T09:13:29;2.40;;;1.08;;
44696;SDS011;57264;47.480;19.354;2024-01-27T09:15:56;5.57;;;1.20;;
44696;SDS011;57264;47.480;19.354;2024-01-27T09:18:22;4.13;;;1.02;;
44696;SDS011;57264;47.480;19.354;2024-01-27T09:20:48;3.67;;;1.10;;
44696;SDS011;57264;47.480;19.354;2024-01-27T09:23:14;2.87;;;0.93;;
44696;SDS011;57264;47.480;19.354;2024-01-27T09:25:39;1.80;;;1.10;;
44696;SDS011;57264;47.480;19.354;2024-01-27T09:28:05;3.70;;;1.10;;
44696;SDS011;57264;47.480;19.354;2024-01-27T09:30:31;2.00;;;1.00;;
44696;SDS011;57264;47.480;19.354;2024-01-27T09:32:57;3.00;;;1.40;;
44696;SDS011;57264;47.480;19.354;2024-01-27T09:35:22;5.63;;;1.77;;
44696;SDS011;57264;47.480;19.354;2024-01-27T09:37:48;3.30;;;1.17;;
44696;SDS011;57264;47.480;19.354;2024-01-27T09:40:13;3.93;;;1.10;;
44696;SDS011;57264;47.480;19.354;2024-01-27T09:42:39;7.60;;;1.13;;
44696;SDS011;57264;47.480;19.354;2024-01-27T09:45:17;4.22;;;0.80;;
44696;SDS011;57264;47.480;19.354;2024-01-27T09:47:42;5.30;;;1.13;;
44696;SDS011;57264;47.480;19.354;2024-01-27T09:50:11;2.25;;;1.20;;
44696;SDS011;57264;47.480;19.354;2024-01-27T09:52:37;2.67;;;1.05;;
44696;SDS011;57264;47.480;19.354;2024-01-27T09:55:03;3.03;;;1.43;;
44696;SDS011;57264;47.480;19.354;2024-01-27T09:57:29;3.77;;;1.07;;
44696;SDS011;57264;47.480;19.354;2024-01-27T09:59:55;4.55;;;1.00;;
44696;SDS011;57264;47.480;19.354;2024-01-27T10:02:22;2.10;;;1.20;;
44696;SDS011;57264;47.480;19.354;2024-01-27T10:04:49;5.25;;;1.00;;
44696;SDS011;57264;47.480;19.354;2024-01-27T10:07:16;6.30;;;1.48;;
44696;SDS011;57264;47.480;19.354;2024-01-27T10:09:42;6.80;;;1.47;;
44696;SDS011;57264;47.480;19.354;2024-01-27T10:12:08;2.53;;;0.77;;
44696;SDS011;57264;47.480;19.354;2024-01-27T10:14:37;2.08;;;0.90;;
44696;SDS011;57264;47.480;19.354;2024-01-27T10:17:10;3.05;;;0.85;;
44696;SDS011;57264;47.480;19.354;2024-01-27T10:19:36;3.22;;;1.08;;
44696;SDS011;57264;47.480;19.354;2024-01-27T10:22:02;3.73;;;1.20;;
44696;SDS011;57264;47.480;19.354;2024-01-27T10:24:28;4.20;;;1.17;;
44696;SDS011;57264;47.480;19.354;2024-01-27T10:27:01;4.50;;;1.88;;
44696;SDS011;57264;47.480;19.354;2024-01-27T10:29:27;4.00;;;1.38;;
44696;SDS011;57264;47.480;19.354;2024-01-27T10:31:53;4.53;;;1.55;;
44696;SDS011;57264;47.480;19.354;2024-01-27T10:34:21;2.37;;;1.17;;
44696;SDS011;57264;47.480;19.354;2024-01-27T10:36:47;3.75;;;0.88;;
44696;SDS011;57264;47.480;19.354;2024-01-27T10:39:24;1.87;;;1.00;;
44696;SDS011;57264;47.480;19.354;2024-01-27T10:41:50;3.42;;;0.88;;
44696;SDS011;57264;47.480;19.354;2024-01-27T10:44:17;1.88;;;1.08;;
44696;SDS011;57264;47.480;19.354;2024-01-27T10:46:44;2.42;;;0.80;;
44696;SDS011;57264;47.480;19.354;2024-01-27T10:49:14;3.33;;;1.25;;
44696;SDS011;57264;47.480;19.354;2024-01-27T10:51:43;4.93;;;1.00;;
44696;SDS011;57264;47.480;19.354;2024-01-27T10:54:34;2.03;;;0.77;;
44696;SDS011;57264;47.480;19.354;2024-01-27T10:57:02;6.20;;;1.63;;
44696;SDS011;57264;47.480;19.354;2024-01-27T10:59:28;4.68;;;2.20;;
44696;SDS011;57264;47.480;19.354;2024-01-27T11:01:55;10.15;;;3.72;;
44696;SDS011;57264;47.480;19.354;2024-01-27T11:04:21;23.37;;;8.00;;
44696;SDS011;57264;47.480;19.354;2024-01-27T11:06:48;16.52;;;6.22;;
44696;SDS011;57264;47.480;19.354;2024-01-27T11:09:14;13.40;;;5.37;;
44696;SDS011;57264;47.480;19.354;2024-01-27T11:11:41;8.38;;;2.88;;
44696;SDS011;57264;47.480;19.354;2024-01-27T11:14:08;4.18;;;1.80;;
44696;SDS011;57264;47.480;19.354;2024-01-27T11:16:35;5.07;;;1.63;;
44696;SDS011;57264;47.480;19.354;2024-01-27T11:19:04;4.30;;;1.45;;
44696;SDS011;57264;47.480;19.354;2024-01-27T11:21:30;2.72;;;0.98;;
44696;SDS011;57264;47.480;19.354;2024-01-27T11:23:55;2.53;;;0.90;;
44696;SDS011;57264;47.480;19.354;2024-01-27T11:26:21;2.97;;;1.20;;
44696;SDS011;57264;47.480;19.354;2024-01-27T11:28:51;2.97;;;1.17;;
44696;SDS011;57264;47.480;19.354;2024-01-27T11:31:19;4.25;;;1.23;;
44696;SDS011;57264;47.480;19.354;2024-01-27T11:33:47;3.70;;;1.33;;
44696;SDS011;57264;47.480;19.354;2024-01-27T11:36:18;3.35;;;0.77;;
44696;SDS011;57264;47.480;19.354;2024-01-27T11:38:48;2.38;;;1.27;;
44696;SDS011;57264;47.480;19.354;2024-01-27T11:41:28;2.40;;;0.90;;
44696;SDS011;57264;47.480;19.354;2024-01-27T11:43:55;4.50;;;1.20;;
44696;SDS011;57264;47.480;19.354;2024-01-27T11:46:22;5.93;;;1.02;;
44696;SDS011;57264;47.480;19.354;2024-01-27T11:48:49;3.95;;;1.35;;
44696;SDS011;57264;47.480;19.354;2024-01-27T11:51:15;4.22;;;1.55;;
44696;SDS011;57264;47.480;19.354;2024-01-27T11:53:40;5.17;;;1.40;;
44696;SDS011;57264;47.480;19.354;2024-01-27T11:56:06;3.47;;;1.87;;
44696;SDS011;57264;47.480;19.354;2024-01-27T11:58:33;3.90;;;1.55;;
44696;SDS011;57264;47.480;19.354;2024-01-27T12:00:59;4.80;;;1.20;;
44696;SDS011;57264;47.480;19.354;2024-01-27T12:03:26;4.72;;;1.55;;
44696;SDS011;57264;47.480;19.354;2024-01-27T12:05:52;3.47;;;1.60;;
44696;SDS011;57264;47.480;19.354;2024-01-27T12:08:18;4.43;;;1.47;;
44696;SDS011;57264;47.480;19.354;2024-01-27T12:10:43;4.70;;;1.33;;
44696;SDS011;57264;47.480;19.354;2024-01-27T12:13:09;4.57;;;0.90;;
44696;SDS011;57264;47.480;19.354;2024-01-27T12:15:35;5.37;;;2.00;;
44696;SDS011;57264;47.480;19.354;2024-01-27T12:18:00;9.87;;;1.47;;
44696;SDS011;57264;47.480;19.354;2024-01-27T12:20:26;8.90;;;1.43;;
44696;SDS011;57264;47.480;19.354;2024-01-27T12:23:05;2.83;;;0.80;;
44696;SDS011;57264;47.480;19.354;2024-01-27T12:25:31;5.57;;;1.10;;
44696;SDS011;57264;47.480;19.354;2024-01-27T12:28:01;4.95;;;1.10;;
44696;SDS011;57264;47.480;19.354;2024-01-27T12:30:33;6.68;;;1.27;;
44696;SDS011;57264;47.480;19.354;2024-01-27T12:32:59;4.60;;;1.30;;
44696;SDS011;57264;47.480;19.354;2024-01-27T12:35:26;5.93;;;1.75;;
44696;SDS011;57264;47.480;19.354;2024-01-27T12:37:52;4.85;;;1.10;;
44696;SDS011;57264;47.480;19.354;2024-01-27T12:40:21;7.00;;;1.48;;
44696;SDS011;57264;47.480;19.354;2024-01-27T12:42:47;3.20;;;1.60;;
44696;SDS011;57264;47.480;19.354;2024-01-27T12:45:13;5.70;;;1.40;;
44696;SDS011;57264;47.480;19.354;2024-01-27T12:47:39;7.47;;;1.63;;
44696;SDS011;57264;47.480;19.354;2024-01-27T12:50:05;12.07;;;2.87;;
44696;SDS011;57264;47.480;19.354;2024-01-27T12:52:31;8.10;;;2.00;;
44696;SDS011;57264;47.480;19.354;2024-01-27T12:54:57;5.43;;;2.40;;
44696;SDS011;57264;47.480;19.354;2024-01-27T12:57:23;3.77;;;1.57;;
44696;SDS011;57264;47.480;19.354;2024-01-27T12:59:48;8.97;;;1.70;;
44696;SDS011;57264;47.480;19.354;2024-01-27T13:02:14;10.03;;;4.37;;
44696;SDS011;57264;47.480;19.354;2024-01-27T13:04:40;9.85;;;4.78;;
44696;SDS011;57264;47.480;19.354;2024-01-27T13:07:06;18.73;;;7.90;;
44696;SDS011;57264;47.480;19.354;2024-01-27T13:09:32;14.95;;;6.75;;
44696;SDS011;57264;47.480;19.354;2024-01-27T13:11:59;16.83;;;6.47;;
44696;SDS011;57264;47.480;19.354;2024-01-27T13:14:24;5.03;;;1.43;;
44696;SDS011;57264;47.480;19.354;2024-01-27T13:16:50;7.80;;;2.47;;
44696;SDS011;57264;47.480;19.354;2024-01-27T13:19:19;6.65;;;2.00;;
44696;SDS011;57264;47.480;19.354;2024-01-27T13:21:44;5.93;;;1.97;;
44696;SDS011;57264;47.480;19.354;2024-01-27T13:24:10;6.87;;;2.10;;
44696;SDS011;57264;47.480;19.354;2024-01-27T13:26:36;6.17;;;1.43;;
44696;SDS011;57264;47.480;19.354;2024-01-27T13:29:04;8.75;;;2.30;;
44696;SDS011;57264;47.480;19.354;2024-01-27T13:31:30;5.33;;;1.73;;
44696;SDS011;57264;47.480;19.354;2024-01-27T13:33:56;6.87;;;1.50;;
44696;SDS011;57264;47.480;19.354;2024-01-27T13:36:22;7.70;;;2.58;;
44696;SDS011;57264;47.480;19.354;2024-01-27T13:38:48;6.78;;;1.92;;
44696;SDS011;57264;47.480;19.354;2024-01-27T13:41:14;7.80;;;2.50;;
44696;SDS011;57264;47.480;19.354;2024-01-27T13:43:40;12.75;;;2.30;;
44696;SDS011;57264;47.480;19.354;2024-01-27T13:46:06;8.23;;;3.10;;
44696;SDS011;57264;47.480;19.354;2024-01-27T13:48:32;6.27;;;2.30;;
44696;SDS011;57264;47.480;19.354;2024-01-27T13:50:58;4.70;;;2.10;;
44696;SDS011;57264;47.480;19.354;2024-01-27T13:53:23;3.80;;;1.30;;
44696;SDS011;57264;47.480;19.354;2024-01-27T13:55:49;6.37;;;2.10;;
44696;SDS011;57264;47.480;19.354;2024-01-27T13:58:14;6.13;;;2.07;;
44696;SDS011;57264;47.480;19.354;2024-01-27T14:00:40;4.90;;;1.90;;
44696;SDS011;57264;47.480;19.354;2024-01-27T14:03:05;6.70;;;1.50;;
44696;SDS011;57264;47.480;19.354;2024-01-27T14:05:31;6.80;;;2.30;;
44696;SDS011;57264;47.480;19.354;2024-01-27T14:07:57;4.23;;;1.17;;
44696;SDS011;57264;47.480;19.354;2024-01-27T14:10:23;4.53;;;1.83;;
44696;SDS011;57264;47.480;19.354;2024-01-27T14:12:49;4.25;;;1.65;;
44696;SDS011;57264;47.480;19.354;2024-01-27T14:15:15;3.63;;;1.30;;
44696;SDS011;57264;47.480;19.354;2024-01-27T14:17:42;5.00;;;2.45;;
44696;SDS011;57264;47.480;19.354;2024-01-27T14:20:08;5.63;;;1.90;;
44696;SDS011;57264;47.480;19.354;2024-01-27T14:22:34;5.78;;;2.70;;
44696;SDS011;57264;47.480;19.354;2024-01-27T14:25:01;11.73;;;2.88;;
44696;SDS011;57264;47.480;19.354;2024-01-27T14:27:26;3.70;;;1.63;;
44696;SDS011;57264;47.480;19.354;2024-01-27T14:29:53;4.17;;;1.40;;
44696;SDS011;57264;47.480;19.354;2024-01-27T14:32:19;5.10;;;1.45;;
44696;SDS011;57264;47.480;19.354;2024-01-27T14:34:45;7.23;;;2.10;;
44696;SDS011;57264;47.480;19.354;2024-01-27T14:37:10;4.63;;;1.33;;
44696;SDS011;57264;47.480;19.354;2024-01-27T14:39:36;7.93;;;2.00;;
44696;SDS011;57264;47.480;19.354;2024-01-27T14:42:02;9.83;;;2.40;;
44696;SDS011;57264;47.480;19.354;2024-01-27T14:44:29;3.92;;;1.25;;
44696;SDS011;57264;47.480;19.354;2024-01-27T14:46:55;3.97;;;1.03;;
44696;SDS011;57264;47.480;19.354;2024-01-27T14:49:22;4.60;;;1.50;;
44696;SDS011;57264;47.480;19.354;2024-01-27T14:51:48;15.50;;;2.30;;
44696;SDS011;57264;47.480;19.354;2024-01-27T14:54:13;6.17;;;2.03;;
44696;SDS011;57264;47.480;19.354;2024-01-27T14:56:39;9.73;;;2.67;;
44696;SDS011;57264;47.480;19.354;2024-01-27T14:59:04;9.07;;;2.73;;
44696;SDS011;57264;47.480;19.354;2024-01-27T15:01:32;5.30;;;1.90;;
44696;SDS011;57264;47.480;19.354;2024-01-27T15:03:58;10.43;;;2.30;;
44696;SDS011;57264;47.480;19.354;2024-01-27T15:06:26;11.45;;;2.75;;
44696;SDS011;57264;47.480;19.354;2024-01-27T15:08:52;5.35;;;1.58;;
44696;SDS011;57264;47.480;19.354;2024-01-27T15:11:18;10.02;;;2.40;;
44696;SDS011;57264;47.480;19.354;2024-01-27T15:13:44;6.90;;;2.70;;
44696;SDS011;57264;47.480;19.354;2024-01-27T15:16:09;7.60;;;2.43;;
44696;SDS011;57264;47.480;19.354;2024-01-27T15:18:35;11.47;;;2.43;;
44696;SDS011;57264;47.480;19.354;2024-01-27T15:21:06;10.88;;;2.42;;
44696;SDS011;57264;47.480;19.354;2024-01-27T15:23:32;9.75;;;2.13;;
44696;SDS011;57264;47.480;19.354;2024-01-27T15:25:59;6.07;;;2.00;;
44696;SDS011;57264;47.480;19.354;2024-01-27T15:28:26;10.00;;;2.67;;
44696;SDS011;57264;47.480;19.354;2024-01-27T15:30:52;12.17;;;2.70;;
44696;SDS011;57264;47.480;19.354;2024-01-27T15:33:18;5.20;;;1.63;;
44696;SDS011;57264;47.480;19.354;2024-01-27T15:35:43;5.80;;;2.30;;
44696;SDS011;57264;47.480;19.354;2024-01-27T15:38:09;4.87;;;1.87;;
44696;SDS011;57264;47.480;19.354;2024-01-27T15:40:35;7.47;;;2.50;;
44696;SDS011;57264;47.480;19.354;2024-01-27T15:43:01;10.73;;;2.37;;
44696;SDS011;57264;47.480;19.354;2024-01-27T15:45:27;8.43;;;2.47;;